createdAt,value
2022-09-13T00:02:27.204Z,11.73
2022-09-13T00:05:44.168Z,11.76
2022-09-13T00:09:01.409Z,11.71
2022-09-13T00:12:17.607Z,11.71
2022-09-13T00:15:34.399Z,11.72
2022-09-13T00:18:50.736Z,11.72
2022-09-13T00:22:07.214Z,11.75
2022-09-13T00:25:23.350Z,11.78
2022-09-13T00:28:39.395Z,11.81
2022-09-13T00:31:55.358Z,11.84
2022-09-13T00:35:13.319Z,11.84
2022-09-13T00:38:29.338Z,11.88
2022-09-13T00:41:45.679Z,11.85
2022-09-13T00:45:06.902Z,11.79
2022-09-13T00:48:27.857Z,11.78
2022-09-13T00:51:44.631Z,11.81
2022-09-13T00:55:04.917Z,11.84
2022-09-13T00:58:26.836Z,11.85
2022-09-13T01:01:47.953Z,11.85
2022-09-13T01:05:04.854Z,11.87
2022-09-13T01:08:23.724Z,11.84
2022-09-13T01:11:47.988Z,11.83
2022-09-13T01:15:08.164Z,11.81
2022-09-13T01:18:24.873Z,11.84
2022-09-13T01:22:23.030Z,11.84
2022-09-13T01:26:27.992Z,11.84
2022-09-13T01:30:21.276Z,11.74
2022-09-13T01:33:53.986Z,11.74
2022-09-13T01:37:38.105Z,11.76
2022-09-13T01:41:04.782Z,11.75
2022-09-13T01:44:28.955Z,11.72
2022-09-13T01:47:50.733Z,11.70
2022-09-13T01:51:12.103Z,11.64
2022-09-13T01:54:34.237Z,11.64
2022-09-13T01:57:54.476Z,11.60
2022-09-13T02:01:18.520Z,11.63
2022-09-13T02:04:41.076Z,11.59
2022-09-13T02:08:03.893Z,11.60
2022-09-13T02:11:23.203Z,11.62
2022-09-13T02:14:39.739Z,11.64
2022-09-13T02:18:00.473Z,11.64
2022-09-13T02:21:20.568Z,11.64
2022-09-13T02:24:40.348Z,11.68
2022-09-13T02:28:02.497Z,11.65
2022-09-13T02:31:20.211Z,11.62
2022-09-13T02:34:40.356Z,11.64
2022-09-13T02:38:02.869Z,11.64
2022-09-13T02:41:23.658Z,11.64
2022-09-13T02:44:43.484Z,11.63
2022-09-13T02:48:04.325Z,11.55
2022-09-13T02:51:26.095Z,11.52
2022-09-13T02:54:46.209Z,11.46
2022-09-13T02:58:08.395Z,11.40
2022-09-13T03:01:25.939Z,11.33
2022-09-13T03:04:43.187Z,11.33
2022-09-13T03:08:00.433Z,11.29
2022-09-13T03:11:23.701Z,11.28
2022-09-13T03:14:50.743Z,11.29
2022-09-13T03:18:13.095Z,11.27
2022-09-13T03:21:43.370Z,11.21
2022-09-13T03:25:06.581Z,11.23
2022-09-13T03:28:30.246Z,11.28
2022-09-13T03:31:51.529Z,11.29
2022-09-13T03:35:15.169Z,11.25
2022-09-13T03:38:36.440Z,11.20
2022-09-13T03:41:57.989Z,11.11
2022-09-13T03:45:17.338Z,11.09
2022-09-13T03:48:31.965Z,11.03
2022-09-13T03:51:49.060Z,10.98
2022-09-13T03:55:05.756Z,10.90
2022-09-13T03:58:27.057Z,10.90
2022-09-13T04:01:44.677Z,10.86
2022-09-13T04:05:02.487Z,10.81
2022-09-13T04:08:18.395Z,10.80
2022-09-13T04:11:35.560Z,10.75
2022-09-13T04:14:52.917Z,10.68
2022-09-13T04:18:09.825Z,10.62
2022-09-13T04:21:27.401Z,10.55
2022-09-13T04:24:44.834Z,10.50
2022-09-13T04:28:05.788Z,10.48
2022-09-13T04:31:21.793Z,10.47
2022-09-13T04:34:37.960Z,10.49
2022-09-13T04:37:54.101Z,10.52
2022-09-13T04:41:10.310Z,10.54
2022-09-13T04:44:27.971Z,10.54
2022-09-13T04:47:43.899Z,10.53
2022-09-13T04:50:59.957Z,10.47
2022-09-13T04:54:17.474Z,10.54
2022-09-13T04:57:33.670Z,10.55
2022-09-13T05:00:50.542Z,10.54
2022-09-13T05:04:06.718Z,10.55
2022-09-13T05:07:23.290Z,10.56
2022-09-13T05:10:39.252Z,10.62
2022-09-13T05:13:59.931Z,10.70
2022-09-13T05:17:16.328Z,10.78
2022-09-13T05:20:32.449Z,10.84
2022-09-13T05:23:48.528Z,10.97
2022-09-13T05:27:04.494Z,11.08
2022-09-13T05:30:23.265Z,11.17
2022-09-13T05:33:42.822Z,11.30
2022-09-13T05:36:58.839Z,11.40
2022-09-13T05:40:19.163Z,11.48
2022-09-13T05:43:38.741Z,11.53
2022-09-13T05:46:56.477Z,11.58
2022-09-13T05:50:32.915Z,11.66
2022-09-13T05:53:34.067Z,11.76
2022-09-13T05:56:52.113Z,11.87
2022-09-13T06:00:08.543Z,11.95
2022-09-13T06:03:29.121Z,12.02
2022-09-13T06:06:45.626Z,12.05
2022-09-13T06:10:01.840Z,12.14
2022-09-13T06:13:18.051Z,12.20
2022-09-13T06:16:34.213Z,12.29
2022-09-13T06:19:50.507Z,12.36
2022-09-13T06:23:06.727Z,12.45
2022-09-13T06:26:25.489Z,12.62
2022-09-13T06:29:41.690Z,12.84
2022-09-13T06:32:57.902Z,13.25
2022-09-13T06:36:19.087Z,13.77
2022-09-13T06:39:35.509Z,14.28
2022-09-13T06:42:53.564Z,14.85
2022-09-13T06:46:15.540Z,15.31
2022-09-13T06:49:32.290Z,16.00
2022-09-13T06:52:48.389Z,16.43
2022-09-13T06:56:13.853Z,16.86
2022-09-13T06:59:30.336Z,17.52
2022-09-13T07:02:46.435Z,17.90
2022-09-13T07:06:02.544Z,18.20
2022-09-13T07:09:23.261Z,18.58
2022-09-13T07:12:39.275Z,18.85
2022-09-13T07:15:56.478Z,18.98
2022-09-13T07:19:17.988Z,19.50
2022-09-13T07:22:33.999Z,19.84
2022-09-13T07:25:50.069Z,20.19
2022-09-13T07:29:09.089Z,20.84
2022-09-13T07:32:25.892Z,20.93
2022-09-13T07:35:41.939Z,21.32
2022-09-13T07:38:58.214Z,21.38
2022-09-13T07:42:14.712Z,21.54
2022-09-13T07:45:30.804Z,21.48
2022-09-13T07:48:49.313Z,21.46
2022-09-13T07:52:05.462Z,21.32
2022-09-13T07:55:21.804Z,21.32
2022-09-13T07:58:38.427Z,21.13
2022-09-13T08:01:58.748Z,20.97
2022-09-13T08:05:17.733Z,21.15
2022-09-13T08:08:34.734Z,21.46
2022-09-13T08:11:53.932Z,21.54
2022-09-13T08:15:10.836Z,21.49
2022-09-13T08:18:28.421Z,21.80
2022-09-13T08:21:47.306Z,21.90
2022-09-13T08:25:03.808Z,22.18
2022-09-13T08:28:27.690Z,21.98
2022-09-13T08:31:44.535Z,21.87
2022-09-13T08:35:01.650Z,21.77
2022-09-13T08:38:18.318Z,21.85
2022-09-13T08:41:53.293Z,21.60
2022-09-13T08:45:10.204Z,21.71
2022-09-13T08:48:32.211Z,21.94
2022-09-13T08:51:53.038Z,21.82
2022-09-13T08:55:16.217Z,22.14
2022-09-13T08:58:52.894Z,22.14
2022-09-13T09:02:25.635Z,22.62
2022-09-13T09:05:49.955Z,22.74
2022-09-13T09:09:11.746Z,22.35
2022-09-13T09:12:36.304Z,22.32
2022-09-13T09:15:56.959Z,22.52
2022-09-13T09:19:22.632Z,22.30
2022-09-13T09:23:07.620Z,22.75
2022-09-13T09:26:29.936Z,22.47
2022-09-13T09:29:47.835Z,22.29
2022-09-13T09:33:18.060Z,22.25
2022-09-13T09:36:44.383Z,22.06
2022-09-13T09:40:11.598Z,21.46
2022-09-13T09:43:34.221Z,21.12
2022-09-13T09:46:53.954Z,20.94
2022-09-13T09:50:17.230Z,20.92
2022-09-13T09:53:37.990Z,20.89
2022-09-13T09:57:02.846Z,20.85
2022-09-13T10:00:26.774Z,20.86
2022-09-13T10:03:47.379Z,20.90
2022-09-13T10:07:27.909Z,20.91
2022-09-13T10:10:49.992Z,20.97
2022-09-13T10:14:11.777Z,21.34
2022-09-13T10:17:34.736Z,21.28
2022-09-13T10:20:56.768Z,21.12
2022-09-13T10:24:29.373Z,20.99
2022-09-13T10:27:49.430Z,20.80
2022-09-13T10:31:11.951Z,20.90
2022-09-13T10:34:31.744Z,20.83
2022-09-13T10:37:50.778Z,20.89
2022-09-13T10:41:09.303Z,20.80
2022-09-13T10:44:39.896Z,20.73
2022-09-13T10:47:59.993Z,20.62
2022-09-13T10:51:24.935Z,20.58
2022-09-13T10:54:41.330Z,20.60
2022-09-13T10:57:59.319Z,20.70
2022-09-13T11:01:41.042Z,20.74
2022-09-13T11:05:21.512Z,20.62
2022-09-13T11:08:50.190Z,20.68
2022-09-13T11:12:11.725Z,20.64
2022-09-13T11:15:41.889Z,20.73
2022-09-13T11:19:20.814Z,20.59
2022-09-13T11:22:41.481Z,20.46
2022-09-13T11:26:10.203Z,20.30
2022-09-13T11:29:41.843Z,20.25
2022-09-13T11:33:26.828Z,20.33
2022-09-13T11:37:09.008Z,20.48
2022-09-13T11:40:52.624Z,20.60
2022-09-13T11:44:30.572Z,20.53
2022-09-13T11:47:57.499Z,20.64
2022-09-13T11:51:20.598Z,20.56
2022-09-13T11:54:55.217Z,20.49
2022-09-13T11:58:15.887Z,20.47
2022-09-13T12:01:37.534Z,20.50
2022-09-13T12:05:21.009Z,20.58
2022-09-13T12:08:24.163Z,20.65
2022-09-13T12:11:45.194Z,20.60
2022-09-13T12:15:05.930Z,20.64
2022-09-13T12:18:26.525Z,20.67
2022-09-13T12:21:46.795Z,20.69
2022-09-13T12:25:08.721Z,20.65
2022-09-13T12:28:30.509Z,20.64
2022-09-13T12:31:46.643Z,20.56
2022-09-13T12:35:07.969Z,20.53
2022-09-13T12:38:57.762Z,20.56
2022-09-13T12:42:43.077Z,20.52
2022-09-13T12:46:36.635Z,20.36
2022-09-13T12:54:10.892Z,20.06
2022-09-13T12:57:42.077Z,19.98
2022-09-13T13:01:09.130Z,20.01
2022-09-13T13:04:29.470Z,20.02
2022-09-13T13:07:48.002Z,19.99
2022-09-13T13:11:14.680Z,19.98
2022-09-13T13:14:54.212Z,19.97
2022-09-13T13:18:28.420Z,19.97
2022-09-13T13:21:47.852Z,19.92
2022-09-13T13:25:05.652Z,19.88
2022-09-13T13:29:20.944Z,19.86
2022-09-13T13:32:39.167Z,19.87
2022-09-13T13:35:58.468Z,19.86
2022-09-13T13:39:17.700Z,19.89
2022-09-13T13:42:40.397Z,19.88
2022-09-13T13:46:37.127Z,19.96
2022-09-13T13:49:58.155Z,19.99
2022-09-13T13:53:34.556Z,19.99
2022-09-13T13:56:57.322Z,19.97
2022-09-13T14:00:21.729Z,19.95
2022-09-13T14:04:07.895Z,19.88
2022-09-13T14:07:58.620Z,19.86
2022-09-13T14:11:26.247Z,19.81
2022-09-13T14:15:02.776Z,19.82
2022-09-13T14:18:58.457Z,19.86
2022-09-13T14:22:27.501Z,19.93
2022-09-13T14:25:44.364Z,20.02
2022-09-13T14:29:00.500Z,20.04
2022-09-13T14:32:23.738Z,20.05
2022-09-13T14:35:44.424Z,20.02
2022-09-13T14:39:04.695Z,19.96
2022-09-13T14:42:26.992Z,19.91
2022-09-13T14:45:46.169Z,19.87
2022-09-13T14:49:06.496Z,19.79
2022-09-13T14:52:29.750Z,19.80
2022-09-13T14:55:49.679Z,19.76
2022-09-13T14:59:09.898Z,19.78
2022-09-13T15:02:30.909Z,19.77
2022-09-13T15:05:47.765Z,19.73
2022-09-13T15:09:09.447Z,19.70
2022-09-13T15:12:33.865Z,19.70
2022-09-13T15:16:03.551Z,19.70
2022-09-13T15:19:47.400Z,19.66
2022-09-13T15:23:04.016Z,19.57
2022-09-13T15:26:36.140Z,19.45
2022-09-13T15:30:05.547Z,19.38
2022-09-13T15:33:36.182Z,19.34
2022-09-13T15:36:54.141Z,19.31
2022-09-13T15:40:26.807Z,19.22
2022-09-13T15:43:42.920Z,19.18
2022-09-13T15:47:03.114Z,19.13
2022-09-13T15:50:32.101Z,19.07
2022-09-13T15:53:50.453Z,18.97
2022-09-13T15:57:08.204Z,18.97
2022-09-13T16:00:31.179Z,19.00
2022-09-13T16:03:47.427Z,18.96
2022-09-13T16:07:03.509Z,18.94
2022-09-13T16:10:28.208Z,18.94
2022-09-13T16:13:44.479Z,18.93
2022-09-13T16:17:00.625Z,18.84
2022-09-13T16:20:21.778Z,18.76
2022-09-13T16:23:37.773Z,18.70
2022-09-13T16:26:54.177Z,18.64
2022-09-13T16:30:10.886Z,18.57
2022-09-13T16:33:27.383Z,18.50
2022-09-13T16:36:43.706Z,18.51
2022-09-13T16:40:03.323Z,18.54
2022-09-13T16:43:19.598Z,18.55
2022-09-13T16:46:35.943Z,18.57
2022-09-13T16:49:53.578Z,18.59
2022-09-13T16:53:10.029Z,18.61
2022-09-13T16:56:32.844Z,18.61
2022-09-13T16:59:49.332Z,18.59
2022-09-13T17:03:06.971Z,18.57
2022-09-13T17:06:26.048Z,18.53
2022-09-13T17:09:41.836Z,18.47
2022-09-13T17:12:58.894Z,18.43
2022-09-13T17:16:27.552Z,18.41
2022-09-13T17:19:45.325Z,18.38
2022-09-13T17:23:02.886Z,18.37
2022-09-13T17:26:20.842Z,18.37
2022-09-13T17:29:37.897Z,18.35
2022-09-13T17:32:55.431Z,18.33
2022-09-13T17:36:17.408Z,18.30
2022-09-13T17:39:34.898Z,18.29
2022-09-13T17:42:52.991Z,18.27
2022-09-13T17:46:14.816Z,18.21
2022-09-13T17:49:32.716Z,18.16
2022-09-13T17:52:49.994Z,18.12
2022-09-13T17:56:07.754Z,18.07
2022-09-13T17:59:30.787Z,18.03
2022-09-13T18:02:52.980Z,18.03
2022-09-13T18:06:18.882Z,17.98
2022-09-13T18:09:36.706Z,17.90
2022-09-13T18:12:53.937Z,17.92
2022-09-13T18:16:18.557Z,17.91
2022-09-13T18:19:45.766Z,17.92
2022-09-13T18:22:53.944Z,17.93
2022-09-13T18:26:15.008Z,17.98
2022-09-13T18:29:36.272Z,17.97
2022-09-13T18:32:54.066Z,17.98
2022-09-13T18:36:16.063Z,18.01
2022-09-13T18:39:35.567Z,18.03
2022-09-13T18:42:53.757Z,18.01
2022-09-13T18:46:13.366Z,18.03
2022-09-13T18:49:32.218Z,18.04
2022-09-13T18:52:53.183Z,18.01
2022-09-13T18:56:19.723Z,18.02
2022-09-13T18:59:37.939Z,18.02
2022-09-13T19:03:11.819Z,17.99
2022-09-13T19:06:29.000Z,17.95
2022-09-13T19:09:47.872Z,17.93
2022-09-13T19:13:08.989Z,17.86
2022-09-13T19:16:29.385Z,17.82
2022-09-13T19:19:49.773Z,17.81
2022-09-13T19:23:08.211Z,17.77
2022-09-13T19:26:34.780Z,17.75
2022-09-13T19:30:04.364Z,17.74
2022-09-13T19:33:27.863Z,17.73
2022-09-13T19:36:47.784Z,17.69
2022-09-13T19:40:08.772Z,17.69
2022-09-13T19:43:27.968Z,17.68
2022-09-13T19:46:47.960Z,17.69
2022-09-13T19:50:06.189Z,17.68
2022-09-13T19:53:40.811Z,17.67
2022-09-13T19:56:47.950Z,17.69
2022-09-13T20:00:05.182Z,17.71
2022-09-13T20:03:24.007Z,17.69
2022-09-13T20:06:46.389Z,17.68
2022-09-13T20:10:05.426Z,17.65
2022-09-13T20:13:25.292Z,17.65
2022-09-13T20:16:47.006Z,17.62
2022-09-13T20:20:04.317Z,17.63
2022-09-13T20:23:25.435Z,17.62
2022-09-13T20:26:44.590Z,17.64
2022-09-13T20:30:01.584Z,17.62
2022-09-13T20:33:18.942Z,17.62
2022-09-13T20:36:40.183Z,17.63
2022-09-13T20:39:57.485Z,17.65
2022-09-13T20:43:14.074Z,17.63
2022-09-13T20:46:32.465Z,17.63
2022-09-13T20:49:49.410Z,17.63
2022-09-13T20:53:06.447Z,17.59
2022-09-13T20:56:25.659Z,17.60
2022-09-13T20:59:41.752Z,17.58
2022-09-13T21:03:00.901Z,17.55
2022-09-13T21:06:15.577Z,17.52
2022-09-13T21:09:32.595Z,17.52
2022-09-13T21:12:49.887Z,17.50
2022-09-13T21:16:12.148Z,17.49
2022-09-13T21:19:28.225Z,17.45
2022-09-13T21:22:47.825Z,17.45
2022-09-13T21:26:04.200Z,17.42
2022-09-13T21:29:20.933Z,17.40
2022-09-13T21:32:37.798Z,17.42
2022-09-13T21:35:54.924Z,17.41
2022-09-13T21:39:12.494Z,17.40
2022-09-13T21:42:28.888Z,17.34
2022-09-13T21:45:46.635Z,17.33
2022-09-13T21:49:06.382Z,17.29
2022-09-13T21:52:22.370Z,17.25
2022-09-13T21:55:41.983Z,17.21
2022-09-13T21:59:01.142Z,17.22
2022-09-13T22:02:15.566Z,17.23
2022-09-13T22:05:30.177Z,17.28
2022-09-13T22:08:45.522Z,17.28
2022-09-13T22:12:01.244Z,17.32
2022-09-13T22:15:17.816Z,17.32
2022-09-13T22:18:32.989Z,17.30
2022-09-13T22:21:56.394Z,17.33
2022-09-13T22:25:10.452Z,17.33
2022-09-13T22:28:24.110Z,17.35
2022-09-13T22:31:39.637Z,17.33
2022-09-13T22:34:53.113Z,17.35
2022-09-13T22:38:07.046Z,17.30
2022-09-13T22:41:22.245Z,17.31
2022-09-13T22:44:38.231Z,17.34
2022-09-13T22:47:51.903Z,17.34
2022-09-13T22:51:05.524Z,17.35
2022-09-13T22:54:20.040Z,17.37
2022-09-13T22:57:33.535Z,17.40
2022-09-13T23:00:47.495Z,17.41
2022-09-13T23:04:01.817Z,17.45
2022-09-13T23:07:23.139Z,17.47
2022-09-13T23:10:37.098Z,17.48
2022-09-13T23:13:52.013Z,17.47
2022-09-13T23:17:05.807Z,17.48
2022-09-13T23:20:20.719Z,17.44
2022-09-13T23:23:34.590Z,17.42
2022-09-13T23:26:51.590Z,17.39
2022-09-13T23:30:05.153Z,17.32
2022-09-13T23:33:18.874Z,17.22
2022-09-13T23:36:35.175Z,17.15
2022-09-13T23:39:48.763Z,16.98
2022-09-13T23:43:02.208Z,16.90
2022-09-13T23:46:15.859Z,16.82
2022-09-13T23:49:29.495Z,16.75
2022-09-13T23:52:42.910Z,16.68
2022-09-13T23:55:56.356Z,16.56
2022-09-13T23:59:11.413Z,16.42
